Main page
METAR-TAF:

METAR-TAF

Airports :

Benbecula, Scotland

Benbecula Airport

latitude: 57-28N, longitude: 007-22W, elevation: 6 m

Current weather observation

The report was made 35 minutes ago, at 22:50 UTC
Wind 5 kt from the South/Southwest
Temperature 13°C
Humidity 88%
Pressure 1000 hPa
Visibility 10 km or more

METAR: EGPL 172250Z AUTO 21005KT 9999 SCT038/// 13/11 Q1000

Time: 00:25 (23:25 UTC)

Forecast

The report was made 12 hours and 24 minutes ago, at 11:01 UTC
Forecast valid from 17 at 12 UTC to 17 at 16 UTC
Wind 17 kt from the South/Southwest
Visibility 10 km or more
Few clouds at a height of 1800 ft
Probability 40% :
Temporary
from 17 at 12 UTC to 17 at 16 UTC
Wind 20 kt from the Southwest with gusts up to 30 kt
Visibility: 6000 m
Broken clouds at a height of 1200 ft
rain showers

TAF: EGPL 171101Z 1712/1716 21017KT 9999 FEW018 PROB40 TEMPO 1712/1716 22020G30KT 6000 SHRA BKN012

Weather observations and forecasts of more than 4000 airports (METAR and TAF reports).

The available stations are represented by yellow and red dots on the map.

Hover mouse over dot to see the name of the station.

Then click to see weather observations and forecasts.

To change the map : click on the green buttons with a black cross to zoom in, on the green button with a dash to zoom out, or on the green arrows for adjacent maps.


METAR-TAF: